sensor_id;sensor_type;location;lat;lon;timestamp;pressure;altitude;pressure_sealevel;temperature;humidity
72892;BME280;61032;50.782;6.818;2023-06-26T00:00:11;100248.38;;;23.30;49.86
72892;BME280;61032;50.782;6.818;2023-06-26T00:01:11;100249.84;;;23.39;49.28
72892;BME280;61032;50.782;6.818;2023-06-26T00:02:12;100246.31;;;23.35;49.56
72892;BME280;61032;50.782;6.818;2023-06-26T00:03:13;100247.94;;;23.32;49.61
72892;BME280;61032;50.782;6.818;2023-06-26T00:04:15;100248.00;;;23.28;49.28
72892;BME280;61032;50.782;6.818;2023-06-26T00:05:15;100249.53;;;23.33;49.48
72892;BME280;61032;50.782;6.818;2023-06-26T00:06:16;100249.16;;;23.31;49.26
72892;BME280;61032;50.782;6.818;2023-06-26T00:07:16;100250.31;;;23.34;49.14
72892;BME280;61032;50.782;6.818;2023-06-26T00:08:16;100248.75;;;23.33;49.12
72892;BME280;61032;50.782;6.818;2023-06-26T00:09:17;100245.13;;;23.32;49.19
72892;BME280;61032;50.782;6.818;2023-06-26T00:10:17;100243.63;;;23.27;48.99
72892;BME280;61032;50.782;6.818;2023-06-26T00:11:17;100242.03;;;23.26;49.22
72892;BME280;61032;50.782;6.818;2023-06-26T00:12:18;100239.22;;;23.26;49.57
72892;BME280;61032;50.782;6.818;2023-06-26T00:13:18;100241.66;;;23.24;49.18
72892;BME280;61032;50.782;6.818;2023-06-26T00:14:18;100251.28;;;23.23;49.32
72892;BME280;61032;50.782;6.818;2023-06-26T00:15:20;100246.53;;;23.20;49.37
72892;BME280;61032;50.782;6.818;2023-06-26T00:16:21;100243.72;;;23.20;49.18
72892;BME280;61032;50.782;6.818;2023-06-26T00:17:21;100245.72;;;23.20;49.29
72892;BME280;61032;50.782;6.818;2023-06-26T00:18:22;100245.03;;;23.12;50.00
72892;BME280;61032;50.782;6.818;2023-06-26T00:19:23;100253.06;;;23.10;49.73
72892;BME280;61032;50.782;6.818;2023-06-26T00:20:23;100243.56;;;23.04;49.82
72892;BME280;61032;50.782;6.818;2023-06-26T00:21:25;100240.78;;;23.01;50.24
72892;BME280;61032;50.782;6.818;2023-06-26T00:22:25;100239.94;;;23.04;50.22
72892;BME280;61032;50.782;6.818;2023-06-26T00:23:26;100249.16;;;23.04;50.14
72892;BME280;61032;50.782;6.818;2023-06-26T00:24:27;100241.16;;;23.03;50.43
72892;BME280;61032;50.782;6.818;2023-06-26T00:25:28;100246.78;;;23.03;50.35
72892;BME280;61032;50.782;6.818;2023-06-26T00:26:28;100243.59;;;23.01;50.40
72892;BME280;61032;50.782;6.818;2023-06-26T00:27:29;100239.63;;;22.98;50.57
72892;BME280;61032;50.782;6.818;2023-06-26T00:28:29;100243.63;;;22.97;50.52
72892;BME280;61032;50.782;6.818;2023-06-26T00:29:30;100240.03;;;22.96;50.53
72892;BME280;61032;50.782;6.818;2023-06-26T00:30:30;100245.34;;;22.87;50.93
72892;BME280;61032;50.782;6.818;2023-06-26T00:31:30;100244.22;;;22.85;50.92
72892;BME280;61032;50.782;6.818;2023-06-26T00:32:31;100237.91;;;22.74;50.83
72892;BME280;61032;50.782;6.818;2023-06-26T00:33:31;100244.03;;;22.65;51.16
72892;BME280;61032;50.782;6.818;2023-06-26T00:34:31;100244.06;;;22.61;51.45
72892;BME280;61032;50.782;6.818;2023-06-26T00:35:32;100237.66;;;22.61;51.42
72892;BME280;61032;50.782;6.818;2023-06-26T00:36:32;100241.72;;;22.56;51.25
72892;BME280;61032;50.782;6.818;2023-06-26T00:37:33;100238.59;;;22.47;51.17
72892;BME280;61032;50.782;6.818;2023-06-26T00:38:33;100245.00;;;22.48;51.15
72892;BME280;61032;50.782;6.818;2023-06-26T00:39:33;100241.78;;;22.49;50.60
72892;BME280;61032;50.782;6.818;2023-06-26T00:40:34;100234.09;;;22.57;51.03
72892;BME280;61032;50.782;6.818;2023-06-26T00:41:34;100245.72;;;22.55;50.73
72892;BME280;61032;50.782;6.818;2023-06-26T00:42:34;100244.94;;;22.55;50.51
72892;BME280;61032;50.782;6.818;2023-06-26T00:43:35;100231.34;;;22.53;50.68
72892;BME280;61032;50.782;6.818;2023-06-26T00:44:35;100237.78;;;22.50;50.81
72892;BME280;61032;50.782;6.818;2023-06-26T00:45:35;100237.41;;;22.48;50.85
72892;BME280;61032;50.782;6.818;2023-06-26T00:46:36;100233.75;;;22.51;50.83
72892;BME280;61032;50.782;6.818;2023-06-26T00:47:37;100237.78;;;22.50;50.89
72892;BME280;61032;50.782;6.818;2023-06-26T00:48:39;100237.41;;;22.48;50.83
72892;BME280;61032;50.782;6.818;2023-06-26T00:49:41;100238.56;;;22.51;51.03
72892;BME280;61032;50.782;6.818;2023-06-26T00:50:42;100228.91;;;22.55;50.88
72892;BME280;61032;50.782;6.818;2023-06-26T00:51:43;100231.38;;;22.50;50.94
72892;BME280;61032;50.782;6.818;2023-06-26T00:52:43;100230.19;;;22.47;51.06
72892;BME280;61032;50.782;6.818;2023-06-26T00:53:44;100233.00;;;22.47;51.34
72892;BME280;61032;50.782;6.818;2023-06-26T00:54:44;100236.97;;;22.50;51.43
72892;BME280;61032;50.782;6.818;2023-06-26T00:55:45;100238.94;;;22.53;51.15
72892;BME280;61032;50.782;6.818;2023-06-26T00:56:46;100232.97;;;22.51;51.44
72892;BME280;61032;50.782;6.818;2023-06-26T00:57:49;100234.72;;;22.38;51.56
72892;BME280;61032;50.782;6.818;2023-06-26T00:58:50;100237.94;;;22.36;51.93
72892;BME280;61032;50.782;6.818;2023-06-26T00:59:50;100235.56;;;22.35;51.74
72892;BME280;61032;50.782;6.818;2023-06-26T01:00:52;100230.72;;;22.39;51.54
72892;BME280;61032;50.782;6.818;2023-06-26T01:01:52;100229.91;;;22.38;51.57
72892;BME280;61032;50.782;6.818;2023-06-26T01:02:53;100233.09;;;22.40;51.65
72892;BME280;61032;50.782;6.818;2023-06-26T01:03:53;100236.66;;;22.44;51.59
72892;BME280;61032;50.782;6.818;2023-06-26T01:04:54;100232.72;;;22.38;51.45
72892;BME280;61032;50.782;6.818;2023-06-26T01:05:56;100233.53;;;22.35;51.43
72892;BME280;61032;50.782;6.818;2023-06-26T01:06:59;100225.97;;;22.32;51.62
72892;BME280;61032;50.782;6.818;2023-06-26T01:07:59;100227.53;;;22.37;51.48
72892;BME280;61032;50.782;6.818;2023-06-26T01:09:00;100228.59;;;22.46;51.17
72892;BME280;61032;50.782;6.818;2023-06-26T01:10:00;100218.25;;;22.43;51.10
72892;BME280;61032;50.782;6.818;2023-06-26T01:11:01;100223.13;;;22.36;51.25
72892;BME280;61032;50.782;6.818;2023-06-26T01:12:01;100224.41;;;22.27;51.31
72892;BME280;61032;50.782;6.818;2023-06-26T01:13:02;100225.19;;;22.32;51.19
72892;BME280;61032;50.782;6.818;2023-06-26T01:14:02;100224.38;;;22.31;51.21
72892;BME280;61032;50.782;6.818;2023-06-26T01:15:03;100227.50;;;22.40;50.95
72892;BME280;61032;50.782;6.818;2023-06-26T01:16:04;100219.97;;;22.34;51.06
72892;BME280;61032;50.782;6.818;2023-06-26T01:17:05;100224.38;;;22.31;51.00
72892;BME280;61032;50.782;6.818;2023-06-26T01:18:07;100222.03;;;22.26;51.10
72892;BME280;61032;50.782;6.818;2023-06-26T01:19:11;100215.53;;;22.36;50.91
72892;BME280;61032;50.782;6.818;2023-06-26T01:20:14;100213.91;;;22.39;50.62
72892;BME280;61032;50.782;6.818;2023-06-26T01:21:17;100223.50;;;22.38;50.87
72892;BME280;61032;50.782;6.818;2023-06-26T01:26:29;100209.31;;;22.18;51.33
72892;BME280;61032;50.782;6.818;2023-06-26T01:27:31;100208.56;;;22.14;51.34
72892;BME280;61032;50.782;6.818;2023-06-26T01:28:38;100217.00;;;22.10;51.44
72892;BME280;61032;50.782;6.818;2023-06-26T01:29:40;100206.22;;;22.09;51.31
72892;BME280;61032;50.782;6.818;2023-06-26T01:30:44;100207.00;;;22.09;50.89
72892;BME280;61032;50.782;6.818;2023-06-26T01:31:45;100205.38;;;22.12;51.10
72892;BME280;61032;50.782;6.818;2023-06-26T01:32:49;100204.16;;;22.13;51.46
72892;BME280;61032;50.782;6.818;2023-06-26T01:33:50;100212.13;;;22.18;51.25
72892;BME280;61032;50.782;6.818;2023-06-26T01:34:52;100210.09;;;22.22;51.16
72892;BME280;61032;50.782;6.818;2023-06-26T01:35:52;100214.00;;;22.28;50.81
72892;BME280;61032;50.782;6.818;2023-06-26T01:36:52;100205.19;;;22.29;51.36
72892;BME280;61032;50.782;6.818;2023-06-26T01:37:53;100205.59;;;22.28;50.82
72892;BME280;61032;50.782;6.818;2023-06-26T01:38:53;100210.38;;;22.31;50.80
72892;BME280;61032;50.782;6.818;2023-06-26T01:39:54;100203.59;;;22.28;50.81
72892;BME280;61032;50.782;6.818;2023-06-26T01:40:54;100204.34;;;22.33;50.85
72892;BME280;61032;50.782;6.818;2023-06-26T01:41:55;100198.34;;;22.34;50.80
72892;BME280;61032;50.782;6.818;2023-06-26T01:42:56;100196.34;;;22.35;50.73
72892;BME280;61032;50.782;6.818;2023-06-26T01:44:07;100200.34;;;22.34;50.77
72892;BME280;61032;50.782;6.818;2023-06-26T01:45:23;100197.97;;;22.32;50.87
72892;BME280;61032;50.782;6.818;2023-06-26T01:47:57;100202.03;;;22.24;51.48
72892;BME280;61032;50.782;6.818;2023-06-26T01:49:15;100202.84;;;22.24;51.53
72892;BME280;61032;50.782;6.818;2023-06-26T01:50:23;100203.28;;;22.23;51.20
72892;BME280;61032;50.782;6.818;2023-06-26T01:51:30;100208.13;;;22.19;51.62
72892;BME280;61032;50.782;6.818;2023-06-26T01:52:47;100206.91;;;22.20;51.95
72892;BME280;61032;50.782;6.818;2023-06-26T01:53:52;100204.91;;;22.20;51.98
72892;BME280;61032;50.782;6.818;2023-06-26T01:56:21;100213.25;;;22.24;51.56
72892;BME280;61032;50.782;6.818;2023-06-26T01:57:25;100218.03;;;22.27;51.53
72892;BME280;61032;50.782;6.818;2023-06-26T01:58:27;100214.38;;;22.30;51.35
72892;BME280;61032;50.782;6.818;2023-06-26T01:59:28;100221.66;;;22.24;51.63
72892;BME280;61032;50.782;6.818;2023-06-26T02:00:31;100230.81;;;22.28;51.47
72892;BME280;61032;50.782;6.818;2023-06-26T02:01:32;100241.94;;;22.35;51.46
72892;BME280;61032;50.782;6.818;2023-06-26T02:02:34;100241.13;;;22.38;51.29
72892;BME280;61032;50.782;6.818;2023-06-26T02:03:34;100244.03;;;22.27;51.65
72892;BME280;61032;50.782;6.818;2023-06-26T02:04:34;100237.69;;;22.23;51.93
72892;BME280;61032;50.782;6.818;2023-06-26T02:05:35;100238.44;;;22.24;52.17
72892;BME280;61032;50.782;6.818;2023-06-26T02:06:35;100239.31;;;22.21;52.40
72892;BME280;61032;50.782;6.818;2023-06-26T02:07:36;100234.16;;;22.16;52.41
72892;BME280;61032;50.782;6.818;2023-06-26T02:08:36;100230.66;;;22.05;52.72
72892;BME280;61032;50.782;6.818;2023-06-26T02:09:36;100234.31;;;22.02;52.74
72892;BME280;61032;50.782;6.818;2023-06-26T02:10:37;100235.91;;;21.95;53.10
72892;BME280;61032;50.782;6.818;2023-06-26T02:11:37;100231.59;;;21.87;53.10
72892;BME280;61032;50.782;6.818;2023-06-26T02:12:38;100225.22;;;21.83;53.31
72892;BME280;61032;50.782;6.818;2023-06-26T02:13:38;100228.88;;;21.80;53.49
72892;BME280;61032;50.782;6.818;2023-06-26T02:14:38;100230.50;;;21.78;53.43
72892;BME280;61032;50.782;6.818;2023-06-26T02:15:39;100232.09;;;21.75;53.53
72892;BME280;61032;50.782;6.818;2023-06-26T02:16:39;100234.09;;;21.78;53.62
72892;BME280;61032;50.782;6.818;2023-06-26T02:17:40;100226.88;;;21.77;53.42
72892;BME280;61032;50.782;6.818;2023-06-26T02:18:40;100229.72;;;21.74;53.58
72892;BME280;61032;50.782;6.818;2023-06-26T02:19:41;100232.16;;;21.68;53.88
72892;BME280;61032;50.782;6.818;2023-06-26T02:20:47;100235.84;;;21.58;54.17
72892;BME280;61032;50.782;6.818;2023-06-26T02:21:48;100237.84;;;21.57;54.16
72892;BME280;61032;50.782;6.818;2023-06-26T02:22:49;100238.25;;;21.59;54.24
72892;BME280;61032;50.782;6.818;2023-06-26T02:23:49;100233.84;;;21.58;54.22
72892;BME280;61032;50.782;6.818;2023-06-26T02:24:50;100239.84;;;21.60;54.17
72892;BME280;61032;50.782;6.818;2023-06-26T02:25:50;100240.63;;;21.61;54.18
72892;BME280;61032;50.782;6.818;2023-06-26T02:26:50;100240.16;;;21.66;54.33
72892;BME280;61032;50.782;6.818;2023-06-26T02:27:51;100227.38;;;21.65;54.32
72892;BME280;61032;50.782;6.818;2023-06-26T02:28:51;100230.19;;;21.65;54.58
72892;BME280;61032;50.782;6.818;2023-06-26T02:29:51;100234.94;;;21.68;54.40
72892;BME280;61032;50.782;6.818;2023-06-26T02:30:52;100236.94;;;21.71;54.51
72892;BME280;61032;50.782;6.818;2023-06-26T02:31:52;100236.16;;;21.67;54.50
72892;BME280;61032;50.782;6.818;2023-06-26T02:32:52;100241.84;;;21.60;54.35
72892;BME280;61032;50.782;6.818;2023-06-26T02:33:53;100243.09;;;21.52;55.18
72892;BME280;61032;50.782;6.818;2023-06-26T02:34:53;100235.06;;;21.54;54.82
72892;BME280;61032;50.782;6.818;2023-06-26T02:35:54;100233.44;;;21.60;54.64
72892;BME280;61032;50.782;6.818;2023-06-26T02:36:54;100232.59;;;21.63;54.44
72892;BME280;61032;50.782;6.818;2023-06-26T02:37:55;100237.78;;;21.65;54.40
72892;BME280;61032;50.782;6.818;2023-06-26T02:38:55;100244.56;;;21.67;54.48
72892;BME280;61032;50.782;6.818;2023-06-26T02:39:56;100234.66;;;21.59;54.66
72892;BME280;61032;50.782;6.818;2023-06-26T02:40:56;100237.47;;;21.55;54.97
72892;BME280;61032;50.782;6.818;2023-06-26T02:41:56;100238.25;;;21.59;54.89
72892;BME280;61032;50.782;6.818;2023-06-26T02:42:57;100240.97;;;21.63;54.71
72892;BME280;61032;50.782;6.818;2023-06-26T02:43:57;100242.66;;;21.57;54.75
72892;BME280;61032;50.782;6.818;2023-06-26T02:44:57;100244.19;;;21.61;54.74
72892;BME280;61032;50.782;6.818;2023-06-26T02:45:57;100243.44;;;21.61;54.71
72892;BME280;61032;50.782;6.818;2023-06-26T02:46:58;100245.78;;;21.63;54.88
72892;BME280;61032;50.782;6.818;2023-06-26T02:47:58;100245.78;;;21.63;54.33
72892;BME280;61032;50.782;6.818;2023-06-26T02:48:59;100248.97;;;21.65;54.62
72892;BME280;61032;50.782;6.818;2023-06-26T02:49:59;100249.75;;;21.65;54.48
72892;BME280;61032;50.782;6.818;2023-06-26T02:50:59;100249.34;;;21.70;54.62
72892;BME280;61032;50.782;6.818;2023-06-26T02:52:00;100260.09;;;21.75;54.15
72892;BME280;61032;50.782;6.818;2023-06-26T02:53:00;100258.88;;;21.80;54.10
72892;BME280;61032;50.782;6.818;2023-06-26T02:54:00;100257.28;;;21.79;54.14
72892;BME280;61032;50.782;6.818;2023-06-26T02:55:01;100268.50;;;21.72;54.46
72892;BME280;61032;50.782;6.818;2023-06-26T02:56:01;100259.31;;;21.71;54.48
72892;BME280;61032;50.782;6.818;2023-06-26T02:57:02;100258.97;;;21.66;54.61
72892;BME280;61032;50.782;6.818;2023-06-26T02:58:02;100266.50;;;21.72;54.33
72892;BME280;61032;50.782;6.818;2023-06-26T02:59:03;100263.31;;;21.74;54.15
72892;BME280;61032;50.782;6.818;2023-06-26T03:00:03;100267.69;;;21.75;54.62
72892;BME280;61032;50.782;6.818;2023-06-26T03:01:06;100270.13;;;21.69;54.47
72892;BME280;61032;50.782;6.818;2023-06-26T03:02:07;100272.13;;;21.69;54.62
72892;BME280;61032;50.782;6.818;2023-06-26T03:03:07;100277.72;;;21.72;54.33
72892;BME280;61032;50.782;6.818;2023-06-26T03:04:08;100279.75;;;21.65;55.14
72892;BME280;61032;50.782;6.818;2023-06-26T03:05:08;100282.22;;;21.59;55.40
72892;BME280;61032;50.782;6.818;2023-06-26T03:06:09;100284.16;;;21.62;55.22
72892;BME280;61032;50.782;6.818;2023-06-26T03:07:09;100280.63;;;21.58;55.75
72892;BME280;61032;50.782;6.818;2023-06-26T03:08:09;100276.69;;;21.48;55.85
72892;BME280;61032;50.782;6.818;2023-06-26T03:09:10;100271.91;;;21.45;56.09
72892;BME280;61032;50.782;6.818;2023-06-26T03:10:10;100278.28;;;21.49;55.86
72892;BME280;61032;50.782;6.818;2023-06-26T03:11:10;100283.47;;;21.51;55.67
72892;BME280;61032;50.782;6.818;2023-06-26T03:12:11;100277.03;;;21.54;55.59
72892;BME280;61032;50.782;6.818;2023-06-26T03:13:11;100276.63;;;21.55;55.84
72892;BME280;61032;50.782;6.818;2023-06-26T03:14:12;100278.66;;;21.51;56.14
72892;BME280;61032;50.782;6.818;2023-06-26T03:15:12;100279.06;;;21.50;56.13
72892;BME280;61032;50.782;6.818;2023-06-26T03:16:12;100282.28;;;21.45;56.31
72892;BME280;61032;50.782;6.818;2023-06-26T03:17:13;100278.28;;;21.46;56.33
72892;BME280;61032;50.782;6.818;2023-06-26T03:18:13;100285.09;;;21.41;56.73
72892;BME280;61032;50.782;6.818;2023-06-26T03:19:13;100284.28;;;21.48;56.46
72892;BME280;61032;50.782;6.818;2023-06-26T03:20:14;100290.66;;;21.52;56.01
72892;BME280;61032;50.782;6.818;2023-06-26T03:21:17;100285.06;;;21.52;55.77
72892;BME280;61032;50.782;6.818;2023-06-26T03:22:17;100283.81;;;21.56;55.47
72892;BME280;61032;50.782;6.818;2023-06-26T03:23:18;100287.00;;;21.58;55.23
72892;BME280;61032;50.782;6.818;2023-06-26T03:24:18;100282.22;;;21.59;54.94
72892;BME280;61032;50.782;6.818;2023-06-26T03:25:19;100277.38;;;21.63;55.15
72892;BME280;61032;50.782;6.818;2023-06-26T03:26:19;100283.72;;;21.67;54.62
72892;BME280;61032;50.782;6.818;2023-06-26T03:27:19;100289.31;;;21.71;54.44
72892;BME280;61032;50.782;6.818;2023-06-26T03:28:20;100287.31;;;21.71;54.42
72892;BME280;61032;50.782;6.818;2023-06-26T03:29:20;100295.72;;;21.71;54.48
72892;BME280;61032;50.782;6.818;2023-06-26T03:30:20;100287.28;;;21.75;54.43
72892;BME280;61032;50.782;6.818;2023-06-26T03:31:21;100287.25;;;21.82;54.44
72892;BME280;61032;50.782;6.818;2023-06-26T03:32:21;100283.19;;;21.86;54.41
72892;BME280;61032;50.782;6.818;2023-06-26T03:33:22;100283.13;;;21.93;54.14
72892;BME280;61032;50.782;6.818;2023-06-26T03:34:22;100286.72;;;22.01;54.28
72892;BME280;61032;50.782;6.818;2023-06-26T03:35:23;100287.84;;;22.07;53.95
72892;BME280;61032;50.782;6.818;2023-06-26T03:36:23;100282.22;;;22.11;53.95
72892;BME280;61032;50.782;6.818;2023-06-26T03:37:24;100280.56;;;22.17;53.84
72892;BME280;61032;50.782;6.818;2023-06-26T03:38:24;100286.16;;;22.17;53.49
72892;BME280;61032;50.782;6.818;2023-06-26T03:39:26;100286.16;;;22.17;53.89
72892;BME280;61032;50.782;6.818;2023-06-26T03:40:26;100290.94;;;22.20;53.92
72892;BME280;61032;50.782;6.818;2023-06-26T03:41:26;100281.41;;;22.10;54.34
72892;BME280;61032;50.782;6.818;2023-06-26T03:42:27;100288.25;;;22.06;54.44
72892;BME280;61032;50.782;6.818;2023-06-26T03:43:27;100292.59;;;22.14;54.30
72892;BME280;61032;50.782;6.818;2023-06-26T03:44:28;100285.41;;;22.13;54.49
72892;BME280;61032;50.782;6.818;2023-06-26T03:45:28;100290.94;;;22.20;54.53
72892;BME280;61032;50.782;6.818;2023-06-26T03:46:29;100285.25;;;22.27;54.54
72892;BME280;61032;50.782;6.818;2023-06-26T03:47:29;100281.22;;;22.28;54.29
72892;BME280;61032;50.782;6.818;2023-06-26T03:48:29;100285.63;;;22.29;54.47
72892;BME280;61032;50.782;6.818;2023-06-26T03:49:30;100283.66;;;22.26;54.66
72892;BME280;61032;50.782;6.818;2023-06-26T03:50:30;100294.03;;;22.29;54.43
72892;BME280;61032;50.782;6.818;2023-06-26T03:51:30;100281.22;;;22.28;54.58
72892;BME280;61032;50.782;6.818;2023-06-26T03:52:31;100285.25;;;22.27;54.78
72892;BME280;61032;50.782;6.818;2023-06-26T03:53:31;100291.63;;;22.31;54.73
72892;BME280;61032;50.782;6.818;2023-06-26T03:54:31;100284.81;;;22.32;54.47
72892;BME280;61032;50.782;6.818;2023-06-26T03:55:34;100282.06;;;22.25;54.86
72892;BME280;61032;50.782;6.818;2023-06-26T03:56:34;100290.13;;;22.19;55.36
72892;BME280;61032;50.782;6.818;2023-06-26T03:57:35;100288.97;;;22.17;55.34
72892;BME280;61032;50.782;6.818;2023-06-26T03:58:35;100290.16;;;22.16;55.54
72892;BME280;61032;50.782;6.818;2023-06-26T03:59:36;100290.53;;;22.21;55.42
72892;BME280;61032;50.782;6.818;2023-06-26T04:00:36;100292.47;;;22.24;55.31
72892;BME280;61032;50.782;6.818;2023-06-26T04:01:37;100288.44;;;22.29;55.27
72892;BME280;61032;50.782;6.818;2023-06-26T04:02:38;100287.63;;;22.28;55.48
72892;BME280;61032;50.782;6.818;2023-06-26T04:03:38;100292.81;;;22.30;55.41
72892;BME280;61032;50.782;6.818;2023-06-26T04:04:39;100284.03;;;22.28;55.66
72892;BME280;61032;50.782;6.818;2023-06-26T04:05:39;100292.44;;;22.28;55.60
72892;BME280;61032;50.782;6.818;2023-06-26T04:06:40;100299.22;;;22.31;55.58
72892;BME280;61032;50.782;6.818;2023-06-26T04:07:40;100298.81;;;22.32;55.73
72892;BME280;61032;50.782;6.818;2023-06-26T04:08:41;100302.00;;;22.34;55.68
72892;BME280;61032;50.782;6.818;2023-06-26T04:09:41;100302.00;;;22.34;55.98
72892;BME280;61032;50.782;6.818;2023-06-26T04:10:42;100307.97;;;22.36;55.64
72892;BME280;61032;50.782;6.818;2023-06-26T04:11:42;100299.56;;;22.36;55.78
72892;BME280;61032;50.782;6.818;2023-06-26T04:12:42;100305.97;;;22.37;55.78
72892;BME280;61032;50.782;6.818;2023-06-26T04:13:43;100310.41;;;22.34;55.92
72892;BME280;61032;50.782;6.818;2023-06-26T04:14:43;100311.19;;;22.35;56.08
72892;BME280;61032;50.782;6.818;2023-06-26T04:15:43;100318.81;;;22.34;56.15
72892;BME280;61032;50.782;6.818;2023-06-26T04:16:44;100315.69;;;22.25;56.45
72892;BME280;61032;50.782;6.818;2023-06-26T04:17:45;100318.47;;;22.25;56.42
72892;BME280;61032;50.782;6.818;2023-06-26T04:18:52;100323.63;;;22.30;56.44
72892;BME280;61032;50.782;6.818;2023-06-26T04:19:55;100317.66;;;22.28;57.04
72892;BME280;61032;50.782;6.818;2023-06-26T04:21:10;100323.22;;;22.32;56.73
72892;BME280;61032;50.782;6.818;2023-06-26T04:22:11;100318.41;;;22.32;56.80
72892;BME280;61032;50.782;6.818;2023-06-26T04:23:15;100331.34;;;22.19;57.34
72892;BME280;61032;50.782;6.818;2023-06-26T04:24:18;100326.19;;;22.14;57.64
72892;BME280;61032;50.782;6.818;2023-06-26T04:25:18;100330.13;;;22.23;57.47
72892;BME280;61032;50.782;6.818;2023-06-26T04:26:22;100330.44;;;22.29;57.24
72892;BME280;61032;50.782;6.818;2023-06-26T04:27:22;100326.44;;;22.30;57.38
72892;BME280;61032;50.782;6.818;2023-06-26T04:28:22;100327.66;;;22.29;57.60
72892;BME280;61032;50.782;6.818;2023-06-26T04:29:25;100329.22;;;22.34;57.45
72892;BME280;61032;50.782;6.818;2023-06-26T04:30:26;100330.78;;;22.38;57.61
72892;BME280;61032;50.782;6.818;2023-06-26T04:31:27;100326.69;;;22.46;57.27
72892;BME280;61032;50.782;6.818;2023-06-26T04:32:28;100326.66;;;22.50;57.15
72892;BME280;61032;50.782;6.818;2023-06-26T04:33:29;100331.81;;;22.55;56.92
72892;BME280;61032;50.782;6.818;2023-06-26T04:34:32;100333.75;;;22.61;56.87
72892;BME280;61032;50.782;6.818;2023-06-26T04:35:35;100336.56;;;22.61;56.94
72892;BME280;61032;50.782;6.818;2023-06-26T04:36:36;100332.47;;;22.66;57.14
72892;BME280;61032;50.782;6.818;2023-06-26T04:37:39;100340.81;;;22.73;56.86
72892;BME280;61032;50.782;6.818;2023-06-26T04:38:40;100338.44;;;22.72;56.52
72892;BME280;61032;50.782;6.818;2023-06-26T04:39:40;100336.00;;;22.74;56.48
72892;BME280;61032;50.782;6.818;2023-06-26T04:40:41;100343.59;;;22.80;56.31
72892;BME280;61032;50.782;6.818;2023-06-26T04:41:41;100345.50;;;22.87;56.72
72892;BME280;61032;50.782;6.818;2023-06-26T04:42:41;100344.06;;;22.68;56.75
72892;BME280;61032;50.782;6.818;2023-06-26T04:43:42;100347.69;;;22.69;56.98
72892;BME280;61032;50.782;6.818;2023-06-26T04:44:42;100343.66;;;22.70;56.98
72892;BME280;61032;50.782;6.818;2023-06-26T04:45:43;100345.59;;;22.76;56.47
72892;BME280;61032;50.782;6.818;2023-06-26T04:46:43;100345.16;;;22.85;56.48
72892;BME280;61032;50.782;6.818;2023-06-26T04:47:43;100347.28;;;22.67;57.20
72892;BME280;61032;50.782;6.818;2023-06-26T04:48:44;100350.44;;;22.72;56.63
72892;BME280;61032;50.782;6.818;2023-06-26T04:49:45;100353.63;;;22.78;56.60
72892;BME280;61032;50.782;6.818;2023-06-26T04:50:46;100358.03;;;22.79;56.70
72892;BME280;61032;50.782;6.818;2023-06-26T04:51:54;100363.22;;;22.80;56.64
72892;BME280;61032;50.782;6.818;2023-06-26T04:52:55;100360.50;;;22.66;57.11
72892;BME280;61032;50.782;6.818;2023-06-26T04:53:56;100355.75;;;22.63;57.19
72892;BME280;61032;50.782;6.818;2023-06-26T04:54:56;100361.66;;;22.72;57.23
72892;BME280;61032;50.782;6.818;2023-06-26T04:55:57;100361.69;;;22.69;56.84
72892;BME280;61032;50.782;6.818;2023-06-26T04:56:57;100353.63;;;22.78;56.51
72892;BME280;61032;50.782;6.818;2023-06-26T04:57:58;100365.50;;;22.89;56.44
72892;BME280;61032;50.782;6.818;2023-06-26T04:58:58;100361.50;;;22.90;55.88
72892;BME280;61032;50.782;6.818;2023-06-26T04:59:59;100363.78;;;23.02;55.35
72892;BME280;61032;50.782;6.818;2023-06-26T05:00:59;100364.56;;;23.03;55.47
72892;BME280;61032;50.782;6.818;2023-06-26T05:02:00;100362.97;;;23.02;55.85
72892;BME280;61032;50.782;6.818;2023-06-26T05:03:01;100370.16;;;23.06;55.83
72892;BME280;61032;50.782;6.818;2023-06-26T05:04:02;100365.75;;;23.05;56.03
72892;BME280;61032;50.782;6.818;2023-06-26T05:05:06;100370.84;;;23.14;55.50
72892;BME280;61032;50.782;6.818;2023-06-26T05:06:10;100370.00;;;23.17;55.75
72892;BME280;61032;50.782;6.818;2023-06-26T05:07:11;100366.78;;;23.18;55.73
72892;BME280;61032;50.782;6.818;2023-06-26T05:08:22;100371.56;;;23.21;55.71
72892;BME280;61032;50.782;6.818;2023-06-26T05:09:23;100362.94;;;23.05;55.52
72892;BME280;61032;50.782;6.818;2023-06-26T05:10:23;100370.19;;;23.03;55.52
72892;BME280;61032;50.782;6.818;2023-06-26T05:11:25;100358.53;;;23.04;55.44
72892;BME280;61032;50.782;6.818;2023-06-26T05:12:28;100367.22;;;23.13;54.34
72892;BME280;61032;50.782;6.818;2023-06-26T05:13:34;100370.97;;;23.03;54.71
72892;BME280;61032;50.782;6.818;2023-06-26T05:14:37;100371.00;;;23.00;54.96
72892;BME280;61032;50.782;6.818;2023-06-26T05:15:38;100366.63;;;22.99;54.83
72892;BME280;61032;50.782;6.818;2023-06-26T05:16:41;100363.97;;;22.84;55.17
72892;BME280;61032;50.782;6.818;2023-06-26T05:17:42;100373.19;;;22.85;55.43
72892;BME280;61032;50.782;6.818;2023-06-26T05:18:43;100373.22;;;22.81;54.71
72892;BME280;61032;50.782;6.818;2023-06-26T05:19:49;100372.84;;;22.79;55.19
72892;BME280;61032;50.782;6.818;2023-06-26T05:20:50;100370.84;;;22.80;55.09
72892;BME280;61032;50.782;6.818;2023-06-26T05:21:54;100379.16;;;22.87;54.89
72892;BME280;61032;50.782;6.818;2023-06-26T05:22:56;100374.53;;;22.66;55.18
72892;BME280;61032;50.782;6.818;2023-06-26T05:23:57;100372.16;;;22.65;55.38
72892;BME280;61032;50.782;6.818;2023-06-26T05:25:18;100373.41;;;22.60;55.95
72892;BME280;61032;50.782;6.818;2023-06-26T05:26:21;100369.78;;;22.63;55.83
72892;BME280;61032;50.782;6.818;2023-06-26T05:27:28;100367.06;;;22.52;55.75